createdAt,value
2019-03-02T01:03:44.079Z,9.06
2019-03-02T01:26:51.516Z,9.27
2019-03-02T01:27:44.837Z,9.35
2019-03-02T01:28:37.411Z,9.32
2019-03-02T01:31:49.661Z,9.23
2019-03-02T01:34:15.324Z,9.53
2019-03-02T01:35:04.455Z,9.58
2019-03-02T01:35:59.332Z,9.63
2019-03-02T01:36:54.913Z,9.63
2019-03-02T01:40:06.463Z,9.58
2019-03-02T01:41:00.422Z,9.65
2019-03-02T01:41:55.447Z,9.59
2019-03-02T01:42:46.787Z,9.53
2019-03-02T01:46:21.715Z,9.6
2019-03-02T01:47:15.728Z,9.6
2019-03-02T01:50:24.688Z,9.59
2019-03-02T01:51:14.202Z,9.63
2019-03-02T01:52:06.008Z,9.6
2019-03-02T01:52:55.347Z,9.6
2019-03-02T01:53:46.953Z,9.62
2019-03-02T01:54:38.353Z,9.58
2019-03-02T01:55:31.144Z,9.53
2019-03-02T01:56:22.959Z,9.62
2019-03-02T01:58:12.880Z,9.68
2019-03-02T01:59:08.857Z,9.73
2019-03-02T01:59:58.823Z,9.62
2019-03-02T02:30:03.475Z,9.22
2019-03-02T02:30:55.730Z,9.26
2019-03-02T02:31:50.468Z,9.19
2019-03-02T02:32:40.328Z,9.19
2019-03-02T02:33:29.494Z,9.2
2019-03-02T02:34:23.408Z,9.15
2019-03-02T02:37:36.953Z,9.27
2019-03-02T02:38:24.951Z,9.32
2019-03-02T02:39:12.455Z,9.24
2019-03-02T02:40:16.578Z,9.26
2019-03-02T02:40:55.670Z,9.27
2019-03-02T02:41:35.989Z,9.35
2019-03-02T02:42:16.517Z,9.35
2019-03-02T02:42:56.865Z,9.4
2019-03-02T02:43:37.296Z,9.42
2019-03-02T02:44:17.716Z,9.42
2019-03-02T02:44:58.364Z,9.5
2019-03-02T02:45:39.260Z,9.41
2019-03-02T02:46:19.930Z,9.42
2019-03-02T02:47:00.070Z,9.41
2019-03-02T02:47:40.667Z,9.42
2019-03-02T02:48:21.041Z,9.48
2019-03-02T02:49:05.218Z,9.42
2019-03-02T02:49:44.230Z,9.41
2019-03-02T02:50:29.282Z,9.5
2019-03-02T02:51:04.136Z,9.53
2019-03-02T02:51:44.289Z,9.52
2019-03-02T02:52:28.193Z,9.6
2019-03-02T02:53:06.769Z,9.56
2019-03-02T02:53:46.609Z,9.65
2019-03-02T02:54:25.026Z,9.6
2019-03-02T02:55:05.500Z,9.6
2019-03-02T02:55:45.937Z,9.6
2019-03-02T02:56:26.394Z,9.7
2019-03-02T02:57:06.806Z,9.68
2019-03-02T02:57:47.220Z,9.73
2019-03-02T02:58:27.627Z,9.7
2019-03-02T02:59:08.035Z,9.68
2019-03-02T02:59:48.443Z,9.71
2019-03-02T03:00:28.892Z,9.6
2019-03-02T03:01:09.244Z,9.68
2019-03-02T03:01:49.602Z,9.68
2019-03-02T03:02:29.968Z,9.7
2019-03-02T03:03:10.525Z,9.68
2019-03-02T03:03:54.730Z,9.71
2019-03-02T03:04:32.434Z,9.67
2019-03-02T03:05:15.087Z,9.65
2019-03-02T03:05:53.922Z,9.65
2019-03-02T03:06:34.050Z,9.68
2019-03-02T03:07:14.262Z,9.71
2019-03-02T03:07:56.790Z,9.63
2019-03-02T03:10:40.514Z,9.6
2019-03-02T03:11:31.496Z,9.58
2019-03-02T03:12:22.642Z,9.45
2019-03-02T03:13:07.840Z,9.4
2019-03-02T03:13:56.600Z,9.44
2019-03-02T03:14:49.295Z,9.34
2019-03-02T03:20:24.434Z,9.2
2019-03-02T03:21:11.800Z,9.22
2019-03-02T03:24:40.429Z,9.19
2019-03-02T03:26:45.861Z,9.12
2019-03-02T03:27:34.849Z,8.91
2019-03-02T03:28:30.505Z,8.88
2019-03-02T03:29:09.513Z,8.79
2019-03-02T03:29:52.470Z,8.75
2019-03-02T03:30:39.495Z,8.71
2019-03-02T03:31:22.923Z,8.68
2019-03-02T03:32:08.889Z,8.68
2019-03-02T03:32:54.126Z,8.64
2019-03-02T03:33:41.253Z,8.65
2019-03-02T03:34:28.283Z,8.55
2019-03-02T03:37:50.414Z,8.64
2019-03-02T03:38:31.744Z,8.64
2019-03-02T03:39:21.438Z,8.49
2019-03-02T03:40:09.892Z,8.6
2019-03-02T03:41:05.180Z,8.63
2019-03-02T03:42:00.486Z,8.58
2019-03-02T03:43:01.941Z,8.57
2019-03-02T03:43:50.649Z,8.64
2019-03-02T03:44:45.640Z,8.7
2019-03-02T03:45:31.100Z,8.71
2019-03-02T03:46:17.683Z,8.76
2019-03-02T03:47:00.295Z,8.76
2019-03-02T03:47:42.021Z,8.73
2019-03-02T03:48:22.596Z,8.76
2019-03-02T03:49:03.047Z,8.85
2019-03-02T03:49:43.504Z,8.85
2019-03-02T03:50:23.831Z,8.82
2019-03-02T03:51:06.393Z,8.8
2019-03-02T03:51:46.743Z,8.88
2019-03-02T03:52:30.061Z,8.88
2019-03-02T03:53:10.412Z,8.88
2019-03-02T03:53:50.854Z,8.94
2019-03-02T03:54:31.241Z,8.88
2019-03-02T03:55:11.642Z,8.76
2019-03-02T03:55:52.114Z,8.76
2019-03-02T03:56:32.522Z,8.8
2019-03-02T03:57:16.992Z,8.82
2019-03-02T03:57:55.261Z,8.82
2019-03-02T03:58:34.935Z,8.85
2019-03-02T03:59:18.840Z,8.89
2019-03-02T03:59:58.543Z,8.97
2019-03-02T04:00:38.549Z,8.96
2019-03-02T04:01:17.644Z,8.97
2019-03-02T04:01:56.708Z,8.96
2019-03-02T04:02:36.988Z,8.96
2019-03-02T04:03:16.615Z,8.94
2019-03-02T04:03:56.960Z,8.93
2019-03-02T04:04:37.448Z,8.94
2019-03-02T04:05:17.862Z,8.94
2019-03-02T04:05:58.275Z,8.94
2019-03-02T04:06:38.713Z,9.08
2019-03-02T04:07:19.117Z,9.2
2019-03-02T04:07:59.598Z,9.31
2019-03-02T04:08:39.964Z,9.34
2019-03-02T04:09:20.355Z,9.34
2019-03-02T04:10:00.801Z,9.31
2019-03-02T04:10:41.160Z,9.32
2019-03-02T04:11:21.586Z,9.38
2019-03-02T04:12:06.613Z,9.32
2019-03-02T04:12:46.401Z,9.31
2019-03-02T04:13:26.779Z,9.32
2019-03-02T04:14:07.176Z,9.31
2019-03-02T04:14:47.650Z,9.27
2019-03-02T04:15:28.126Z,9.31
2019-03-02T04:16:08.715Z,9.19
2019-03-02T04:16:49.142Z,9.06
2019-03-02T04:17:34.002Z,9.15
2019-03-02T04:18:12.541Z,9.17
2019-03-02T04:18:55.071Z,9.1
2019-03-02T04:19:33.906Z,9.12
2019-03-02T04:20:12.415Z,9.13
2019-03-02T04:20:51.579Z,9.08
2019-03-02T04:21:31.998Z,9.16
2019-03-02T04:22:12.400Z,9.08
2019-03-02T04:22:52.871Z,9.08
2019-03-02T04:23:33.291Z,9.15
2019-03-02T04:24:13.678Z,9.22
2019-03-02T04:24:54.222Z,9.19
2019-03-02T04:25:34.686Z,9.27
2019-03-02T04:26:15.074Z,9.24
2019-03-02T04:26:55.504Z,9.22
2019-03-02T04:27:35.936Z,9.23
2019-03-02T05:07:01.518Z,8.27
2019-03-02T05:14:00.667Z,8.2
2019-03-02T05:17:26.028Z,8.34
2019-03-02T05:18:14.714Z,8.18
2019-03-02T05:19:03.444Z,8.25
2019-03-02T05:19:52.717Z,8.32
2019-03-02T05:20:43.109Z,8.25
2019-03-02T05:21:39.751Z,8.18
2019-03-02T05:23:42.295Z,8.34
2019-03-02T05:24:30.908Z,8.39
2019-03-02T05:25:20.465Z,8.52
2019-03-02T05:27:16.047Z,8.61
2019-03-02T05:28:07.225Z,8.65
2019-03-02T05:28:53.438Z,8.67
2019-03-02T05:29:42.107Z,8.79
2019-03-02T05:30:34.043Z,8.79
2019-03-02T05:32:15.976Z,8.78
2019-03-02T05:33:05.009Z,8.71
2019-03-02T05:33:54.859Z,8.73
2019-03-02T05:36:07.102Z,8.79
2019-03-02T05:37:02.798Z,8.79
2019-03-02T05:41:39.160Z,8.82
2019-03-02T05:42:26.995Z,8.91
2019-03-02T05:43:27.071Z,8.89
2019-03-02T05:46:27.522Z,8.97
2019-03-02T05:49:15.648Z,9.12
2019-03-02T05:51:03.752Z,9.04
2019-03-02T05:54:59.390Z,8.94
2019-03-02T05:57:00.612Z,8.91
2019-03-02T05:57:54.369Z,8.94
2019-03-02T06:00:01.641Z,8.94
2019-03-02T06:00:50.451Z,8.86
2019-03-02T06:03:04.683Z,8.89
2019-03-02T06:07:42.349Z,8.91
2019-03-02T06:08:35.560Z,8.98
2019-03-02T06:09:25.481Z,9.1
2019-03-02T06:10:17.991Z,9.15
2019-03-02T06:11:11.013Z,9.19
2019-03-02T06:12:01.659Z,9.1
2019-03-02T06:12:53.724Z,9.19
2019-03-02T06:15:00.356Z,9.16
2019-03-02T06:17:03.162Z,9.23
2019-03-02T06:20:35.552Z,9.35
2019-03-02T06:26:35.341Z,9.41
2019-03-02T06:27:31.282Z,9.48
2019-03-02T06:28:22.975Z,9.35
2019-03-02T06:29:13.455Z,9.35
2019-03-02T06:30:04.775Z,9.27
2019-03-02T06:39:07.720Z,9.37
2019-03-02T06:44:18.609Z,9.49
2019-03-02T06:45:57.657Z,9.59
2019-03-02T06:46:58.222Z,9.6
2019-03-02T06:47:58.676Z,9.52
2019-03-02T06:56:57.887Z,9.78
2019-03-02T06:58:32.516Z,9.77
2019-03-02T06:59:27.124Z,9.7
2019-03-02T07:00:19.077Z,9.8
2019-03-02T07:01:16.568Z,9.65
2019-03-02T07:02:10.123Z,9.65
2019-03-02T07:03:00.828Z,9.68
2019-03-02T07:04:02.009Z,9.7
2019-03-02T07:05:55.815Z,9.67
2019-03-02T07:14:44.760Z,9.73
2019-03-02T07:18:31.932Z,9.8
2019-03-02T07:20:15.824Z,9.65
2019-03-02T07:23:29.598Z,9.34
2019-03-02T07:25:21.726Z,9.2
2019-03-02T07:26:20.905Z,9.22
2019-03-02T07:56:15.508Z,9.65
2019-03-02T07:57:54.790Z,9.75
2019-03-02T07:58:48.210Z,9.88
2019-03-02T07:59:43.995Z,9.8
2019-03-02T08:02:13.847Z,9.67
2019-03-02T08:08:56.910Z,9.68
2019-03-02T08:09:51.556Z,9.77
2019-03-02T08:12:01.691Z,9.95
2019-03-02T08:32:30.809Z,10.2
2019-03-02T08:46:08.749Z,10.72
2019-03-02T08:49:18.731Z,10.73
2019-03-02T09:15:43.112Z,10.9
2019-03-02T09:37:10.423Z,10.95
2019-03-02T09:39:23.676Z,11.06
2019-03-02T09:41:21.927Z,11.16
2019-03-02T10:25:01.465Z,11.64
2019-03-02T11:07:48.782Z,11.88
2019-03-02T11:14:03.309Z,11.97
2019-03-02T11:14:42.870Z,11.97
2019-03-02T11:15:26.258Z,11.96
2019-03-02T11:16:11.126Z,12.01
2019-03-02T11:16:54.553Z,11.96
2019-03-02T11:17:35.477Z,11.94
2019-03-02T11:18:17.595Z,11.96
2019-03-02T11:18:58.552Z,11.94
2019-03-02T11:19:43.753Z,12.03
2019-03-02T11:20:20.855Z,11.93
2019-03-02T11:21:00.968Z,11.96
2019-03-02T11:21:43.113Z,11.96
2019-03-02T11:22:25.946Z,12.13
2019-03-02T11:23:06.191Z,12.16
2019-03-02T11:23:51.153Z,12.36
2019-03-02T11:24:33.064Z,12.44
2019-03-02T11:25:18.223Z,12.48
2019-03-02T11:26:13.424Z,12.56
2019-03-02T11:31:26.797Z,12.92
2019-03-02T11:32:16.800Z,13.09
2019-03-02T11:32:55.978Z,13.29
2019-03-02T11:33:36.716Z,13.25
2019-03-02T11:34:19.224Z,13.35
2019-03-02T11:39:18.640Z,13.93
2019-03-02T11:40:03.204Z,13.86
2019-03-02T11:40:47.801Z,13.81
2019-03-02T11:41:43.422Z,13.68
2019-03-02T11:42:28.730Z,13.66
2019-03-02T11:43:16.222Z,13.51
2019-03-02T11:43:53.570Z,13.44
2019-03-02T11:44:33.675Z,13.35
2019-03-02T11:45:14.977Z,13.28
2019-03-02T11:45:59.123Z,13.24
2019-03-02T11:46:39.449Z,13.1
2019-03-02T11:47:19.800Z,12.96
2019-03-02T11:48:04.351Z,12.91
2019-03-02T11:48:47.665Z,12.77
2019-03-02T11:49:30.569Z,12.77
2019-03-02T11:50:10.730Z,12.77
2019-03-02T11:50:52.286Z,12.81
2019-03-02T11:51:31.557Z,12.73
2019-03-02T11:52:14.269Z,12.67
2019-03-02T11:53:12.703Z,12.73
2019-03-02T11:54:00.297Z,12.71
2019-03-02T11:55:57.735Z,12.89
2019-03-02T11:57:42.705Z,13.19
2019-03-02T12:00:37.394Z,13.41
2019-03-02T12:01:13.268Z,13.32
2019-03-02T12:01:55.491Z,13.32
2019-03-02T12:02:42.128Z,13.35
2019-03-02T12:03:22.477Z,13.46
2019-03-02T12:04:11.883Z,13.61
2019-03-02T12:04:52.168Z,13.55
2019-03-02T12:05:32.006Z,13.59
2019-03-02T12:06:12.650Z,13.69
2019-03-02T12:06:55.063Z,13.66
2019-03-02T12:07:37.242Z,13.84
2019-03-02T12:08:17.909Z,13.91
2019-03-02T12:09:01.622Z,14.13
2019-03-02T12:09:47.857Z,14.34
2019-03-02T12:10:30.189Z,14.3
2019-03-02T12:11:11.358Z,14.31
2019-03-02T12:11:51.838Z,14.45
2019-03-02T12:12:35.388Z,14.36
2019-03-02T12:13:15.602Z,14.45
2019-03-02T12:14:05.873Z,14.29
2019-03-02T12:14:46.217Z,14.13
2019-03-02T12:15:25.147Z,14.13
2019-03-02T12:16:07.093Z,14.08
2019-03-02T12:16:50.520Z,14.01
2019-03-02T12:17:30.844Z,14.13
2019-03-02T12:18:12.736Z,14.16
2019-03-02T12:18:54.081Z,14.26
2019-03-02T12:19:33.134Z,14.41
2019-03-02T12:20:14.425Z,14.56
2019-03-02T12:20:56.755Z,14.67
2019-03-02T12:21:39.109Z,14.75
2019-03-02T12:22:19.498Z,14.83
2019-03-02T12:22:59.898Z,14.94
2019-03-02T12:23:40.285Z,15.01
2019-03-02T12:24:22.241Z,14.86
2019-03-02T12:25:02.116Z,14.75
2019-03-02T12:25:43.539Z,14.48
2019-03-02T12:26:27.893Z,14.39
2019-03-02T12:27:08.325Z,14.35
2019-03-02T12:27:49.677Z,14.27
2019-03-02T12:28:32.930Z,14.12
2019-03-02T12:29:13.311Z,14.23
2019-03-02T12:29:53.294Z,14.24
2019-03-02T12:30:34.840Z,14.2
2019-03-02T12:31:16.847Z,14.24
2019-03-02T12:31:57.429Z,14.27
2019-03-02T12:32:40.150Z,14.3
2019-03-02T12:33:20.493Z,14.34
2019-03-02T12:33:58.752Z,14.38
2019-03-02T12:34:41.193Z,14.31
2019-03-02T12:35:21.496Z,14.41
2019-03-02T12:36:01.966Z,14.38
2019-03-02T12:36:42.701Z,14.35
2019-03-02T12:37:23.176Z,14.42
2019-03-02T12:38:07.081Z,14.3
2019-03-02T12:38:47.955Z,14.23
2019-03-02T12:39:28.000Z,14.16
2019-03-02T12:42:58.637Z,13.84
2019-03-02T12:43:46.753Z,13.72
2019-03-02T12:48:29.404Z,13.84
2019-03-02T12:49:18.467Z,13.94
2019-03-02T12:50:02.632Z,14.23
2019-03-02T12:50:43.042Z,14.38
2019-03-02T12:51:27.465Z,14.49
2019-03-02T12:52:07.958Z,14.52
2019-03-02T12:52:53.063Z,14.71
2019-03-02T12:53:46.710Z,14.72
2019-03-02T12:54:28.791Z,14.78
2019-03-02T12:55:11.001Z,14.85
2019-03-02T12:55:53.071Z,14.86
2019-03-02T12:56:34.656Z,14.82
2019-03-02T12:57:18.955Z,14.75
2019-03-02T12:58:00.501Z,14.78
2019-03-02T12:58:40.953Z,14.8
2019-03-02T12:59:22.303Z,15
2019-03-02T13:00:04.289Z,15.04
2019-03-02T13:00:45.620Z,15.01
2019-03-02T13:01:28.432Z,14.97
2019-03-02T13:02:20.208Z,14.97
2019-03-02T13:03:01.053Z,14.91
2019-03-02T13:03:41.546Z,14.98
2019-03-02T13:04:22.197Z,15.07
2019-03-02T13:05:02.806Z,15.03
2019-03-02T13:05:46.758Z,14.83
2019-03-02T13:06:28.419Z,14.78
2019-03-02T13:07:10.226Z,14.75
2019-03-02T13:07:50.668Z,14.69
2019-03-02T13:08:30.098Z,14.75
2019-03-02T13:09:13.936Z,14.67
2019-03-02T13:09:54.462Z,14.67
2019-03-02T13:10:35.895Z,14.59
2019-03-02T13:11:16.267Z,14.54
2019-03-02T13:11:57.409Z,14.59
2019-03-02T13:12:42.500Z,14.66
2019-03-02T13:13:24.335Z,14.6
2019-03-02T13:14:04.857Z,14.66
2019-03-02T13:14:45.113Z,14.56
2019-03-02T13:15:27.320Z,14.54
2019-03-02T13:16:07.659Z,14.6
2019-03-02T13:16:51.949Z,14.69
2019-03-02T13:17:37.058Z,14.86
2019-03-02T13:18:17.731Z,14.91
2019-03-02T13:18:58.113Z,14.9
2019-03-02T13:19:38.481Z,14.91
2019-03-02T13:20:22.893Z,14.82
2019-03-02T13:21:06.485Z,14.71
2019-03-02T13:21:47.947Z,14.64
2019-03-02T13:22:31.609Z,14.75
2019-03-02T13:23:11.908Z,14.67
2019-03-02T13:23:54.535Z,14.63
2019-03-02T13:24:57.782Z,14.48
2019-03-02T13:25:37.347Z,14.56
2019-03-02T13:26:34.600Z,14.67
2019-03-02T13:27:14.981Z,14.72
2019-03-02T13:27:56.726Z,14.79
2019-03-02T13:28:36.932Z,14.79
2019-03-02T13:29:17.429Z,14.91
2019-03-02T13:29:59.862Z,14.97
2019-03-02T13:30:40.247Z,15.04
2019-03-02T13:31:20.757Z,14.97
2019-03-02T13:32:04.881Z,15.07
2019-03-02T13:32:48.505Z,15.09
2019-03-02T13:33:29.984Z,15.15
2019-03-02T13:34:11.532Z,15.19
2019-03-02T13:35:10.803Z,15.22
2019-03-02T13:36:00.050Z,15.22
2019-03-02T13:36:31.839Z,15.28
2019-03-02T13:37:29.027Z,15.3
2019-03-02T13:38:11.053Z,15.38
2019-03-02T13:38:50.498Z,15.38
2019-03-02T13:39:34.869Z,15.38
2019-03-02T13:40:19.141Z,15.31
2019-03-02T13:41:04.901Z,15.3
2019-03-02T13:41:42.876Z,15.3
2019-03-02T13:42:23.733Z,15.43
2019-03-02T13:43:04.570Z,15.33
2019-03-02T13:43:45.443Z,15.43
2019-03-02T13:44:26.001Z,15.44
2019-03-02T13:45:08.001Z,15.46
2019-03-02T13:45:51.743Z,15.31
2019-03-02T13:46:34.352Z,15.41
2019-03-02T13:47:11.514Z,15.43
2019-03-02T13:47:51.724Z,15.41
2019-03-02T13:48:32.143Z,15.59
2019-03-02T13:49:12.640Z,15.59
2019-03-02T13:49:57.836Z,15.53
2019-03-02T13:50:38.217Z,15.6
2019-03-02T13:57:50.974Z,15.04
2019-03-02T13:58:36.632Z,15.01
2019-03-02T13:59:21.306Z,15.04
2019-03-02T14:00:03.284Z,15.18
2019-03-02T14:04:39.325Z,15.15
2019-03-02T14:06:39.694Z,15.22
2019-03-02T14:09:03.378Z,15.18
2019-03-02T14:09:49.686Z,15.19
2019-03-02T14:10:29.710Z,15.18
2019-03-02T14:11:10.351Z,15.23
2019-03-02T14:11:52.400Z,15.19
2019-03-02T14:12:32.620Z,15.22
2019-03-02T14:13:13.197Z,15.31
2019-03-02T14:13:53.791Z,15.18
2019-03-02T14:14:34.131Z,15.34
2019-03-02T14:15:17.189Z,15.18
2019-03-02T14:15:59.358Z,15.2
2019-03-02T14:16:38.249Z,15.16
2019-03-02T14:17:19.074Z,15.19
2019-03-02T14:17:59.332Z,15.04
2019-03-02T14:18:39.834Z,15.01
2019-03-02T14:19:20.265Z,15.05
2019-03-02T14:20:01.946Z,15.05
2019-03-02T14:20:41.009Z,15.01
2019-03-02T14:21:21.471Z,15.15
2019-03-02T14:22:01.900Z,15.16
2019-03-02T14:22:44.848Z,15.22
2019-03-02T14:23:25.982Z,15.25
2019-03-02T14:24:07.642Z,15.15
2019-03-02T14:24:46.849Z,15.12
2019-03-02T14:25:25.780Z,15.13
2019-03-02T14:26:06.277Z,15.07
2019-03-02T14:26:46.648Z,15.07
2019-03-02T14:27:28.259Z,15.09
2019-03-02T14:28:07.935Z,15.11
2019-03-02T14:28:48.346Z,15.12
2019-03-02T14:29:29.598Z,15.01
2019-03-02T14:30:12.158Z,15.03
2019-03-02T14:30:52.343Z,14.93
2019-03-02T14:31:34.028Z,14.91
2019-03-02T14:32:13.738Z,14.86
2019-03-02T14:32:53.059Z,14.75
2019-03-02T14:33:33.663Z,14.78
2019-03-02T14:34:14.078Z,14.82
2019-03-02T14:34:54.433Z,14.75
2019-03-02T14:35:37.142Z,14.75
2019-03-02T14:36:15.578Z,14.83
2019-03-02T14:36:59.920Z,14.78
2019-03-02T14:37:40.640Z,14.72
2019-03-02T14:38:24.911Z,14.85
2019-03-02T14:39:04.423Z,14.85
2019-03-02T14:39:46.926Z,14.78
2019-03-02T14:40:26.844Z,14.82
2019-03-02T14:41:07.229Z,14.8
2019-03-02T14:41:47.619Z,14.85
2019-03-02T14:42:30.153Z,14.72
2019-03-02T14:43:10.457Z,14.83
2019-03-02T14:43:53.572Z,14.87
2019-03-02T14:44:42.120Z,14.93
2019-03-02T14:45:25.318Z,14.91
2019-03-02T14:46:05.621Z,14.9
2019-03-02T14:46:47.258Z,14.93
2019-03-02T14:47:27.890Z,14.98
2019-03-02T14:48:09.202Z,14.79
2019-03-02T14:48:49.478Z,14.82
2019-03-02T14:49:29.425Z,14.79
2019-03-02T14:50:09.568Z,14.75
2019-03-02T14:52:06.575Z,14.75
2019-03-02T14:53:37.214Z,14.69
2019-03-02T14:54:20.686Z,14.78
2019-03-02T14:55:00.786Z,14.61
2019-03-02T14:55:41.367Z,14.64
2019-03-02T14:56:21.779Z,14.72
2019-03-02T14:57:02.412Z,14.63
2019-03-02T14:57:47.175Z,14.75
2019-03-02T14:58:26.766Z,14.64
2019-03-02T14:59:10.118Z,14.53
2019-03-02T14:59:50.138Z,14.53
2019-03-02T15:00:29.020Z,14.38
2019-03-02T15:01:09.386Z,14.45
2019-03-02T15:01:49.815Z,14.41
2019-03-02T15:02:30.573Z,14.41
2019-03-02T15:03:11.014Z,14.41
2019-03-02T15:03:51.712Z,14.38
2019-03-02T15:04:34.098Z,14.42
2019-03-02T15:05:15.963Z,14.44
2019-03-02T15:06:08.277Z,14.44
2019-03-02T15:06:40.399Z,14.39
2019-03-02T15:07:22.150Z,14.38
2019-03-02T15:08:01.407Z,14.41
2019-03-02T15:08:41.822Z,14.29
2019-03-02T15:09:22.242Z,14.38
2019-03-02T15:10:02.533Z,14.42
2019-03-02T15:10:43.384Z,14.52
2019-03-02T15:11:24.893Z,14.52
2019-03-02T15:12:05.253Z,14.59
2019-03-02T15:12:48.429Z,14.6
2019-03-02T15:13:30.670Z,14.67
2019-03-02T15:14:13.204Z,14.61
2019-03-02T15:14:53.871Z,14.67
2019-03-02T15:15:36.102Z,14.59
2019-03-02T15:16:15.489Z,14.59
2019-03-02T15:16:56.173Z,14.57
2019-03-02T15:17:36.824Z,14.52
2019-03-02T15:18:17.196Z,14.53
2019-03-02T15:18:58.343Z,14.64
2019-03-02T15:19:39.500Z,14.56
2019-03-02T15:20:19.148Z,14.52
2019-03-02T15:20:59.510Z,14.56
2019-03-02T15:21:39.954Z,14.49
2019-03-02T15:22:23.771Z,14.53
2019-03-02T15:23:04.254Z,14.56
2019-03-02T15:23:45.897Z,14.6
2019-03-02T15:24:26.483Z,14.57
2019-03-02T15:25:08.925Z,14.61
2019-03-02T15:25:52.545Z,14.59
2019-03-02T15:26:32.904Z,14.66
2019-03-02T15:30:26.760Z,14.41
2019-03-02T15:31:07.335Z,14.44
2019-03-02T15:31:48.391Z,14.44
2019-03-02T15:32:28.127Z,14.35
2019-03-02T15:33:19.069Z,14.27
2019-03-02T15:33:59.442Z,14.39
2019-03-02T15:34:49.285Z,14.49
2019-03-02T15:35:22.024Z,14.42
2019-03-02T15:36:02.785Z,14.49
2019-03-02T15:36:49.148Z,14.49
2019-03-02T15:37:28.818Z,14.6
2019-03-02T15:38:10.584Z,14.53
2019-03-02T15:38:50.997Z,14.59
2019-03-02T15:39:31.358Z,14.52
2019-03-02T15:40:11.785Z,14.45
2019-03-02T15:40:53.986Z,14.42
2019-03-02T15:41:34.684Z,14.38
2019-03-02T15:42:17.979Z,14.27
2019-03-02T15:42:59.745Z,14.3
2019-03-02T15:43:39.949Z,14.3
2019-03-02T15:44:20.369Z,14.3
2019-03-02T15:45:01.961Z,14.34
2019-03-02T15:45:43.173Z,14.29
2019-03-02T15:46:27.318Z,14.36
2019-03-02T15:47:09.931Z,14.38
2019-03-02T15:47:50.660Z,14.42
2019-03-02T15:48:28.779Z,14.41
2019-03-02T15:49:09.180Z,14.45
2019-03-02T15:49:49.585Z,14.42
2019-03-02T15:50:32.095Z,14.48
2019-03-02T15:51:12.451Z,14.49
2019-03-02T15:51:52.873Z,14.49
2019-03-02T15:52:34.187Z,14.42
2019-03-02T15:53:16.095Z,14.38
2019-03-02T15:53:56.482Z,14.39
2019-03-02T15:54:35.840Z,14.44
2019-03-02T15:55:16.154Z,14.41
2019-03-02T15:55:57.161Z,14.48
2019-03-02T15:56:39.654Z,14.44
2019-03-02T15:57:21.001Z,14.35
2019-03-02T15:58:02.005Z,14.31
2019-03-02T15:58:42.770Z,14.39
2019-03-02T15:59:24.638Z,14.35
2019-03-02T16:00:05.056Z,14.44
2019-03-02T16:00:46.310Z,14.38
2019-03-02T16:01:27.150Z,14.46
2019-03-02T16:02:06.173Z,14.44
2019-03-02T16:02:46.762Z,14.42
2019-03-02T16:03:27.174Z,14.42
2019-03-02T16:04:07.636Z,14.39
2019-03-02T16:04:47.996Z,14.36
2019-03-02T16:05:30.540Z,14.45
2019-03-02T16:06:12.037Z,14.39
2019-03-02T16:06:53.047Z,14.39
2019-03-02T16:07:34.940Z,14.42
2019-03-02T16:08:14.044Z,14.42
2019-03-02T16:08:53.691Z,14.48
2019-03-02T16:09:35.512Z,14.49
2019-03-02T16:10:14.752Z,14.46
2019-03-02T16:10:55.124Z,14.48
2019-03-02T16:11:37.540Z,14.39
2019-03-02T16:12:17.885Z,14.34
2019-03-02T16:12:59.662Z,14.39
2019-03-02T16:13:49.363Z,14.3
2019-03-02T16:14:22.608Z,14.26
2019-03-02T16:15:03.157Z,14.2
2019-03-02T16:15:45.148Z,14.27
2019-03-02T16:16:24.851Z,14.31
2019-03-02T16:17:04.666Z,14.34
2019-03-02T16:17:46.650Z,14.31
2019-03-02T16:18:30.232Z,14.27
2019-03-02T16:19:12.902Z,14.21
2019-03-02T16:19:55.029Z,14.21
2019-03-02T16:20:35.432Z,14.26
2019-03-02T16:21:19.427Z,14.34
2019-03-02T16:21:57.093Z,14.3
2019-03-02T16:22:37.034Z,14.21
2019-03-02T16:23:17.564Z,14.26
2019-03-02T16:23:58.495Z,14.2
2019-03-02T16:24:39.038Z,14.09
2019-03-02T16:25:19.451Z,14.12
2019-03-02T16:25:59.920Z,14.17
2019-03-02T16:26:40.448Z,14.06
2019-03-02T16:27:20.745Z,13.98
2019-03-02T16:28:05.962Z,14.06
2019-03-02T16:28:43.794Z,13.94
2019-03-02T16:29:26.362Z,13.98
2019-03-02T16:30:07.419Z,13.88
2019-03-02T16:30:47.754Z,13.84
2019-03-02T16:31:28.119Z,13.79
2019-03-02T16:32:08.666Z,13.69
2019-03-02T16:32:51.811Z,13.68
2019-03-02T17:20:16.484Z,12.04
2019-03-02T17:22:28.746Z,12.01
2019-03-02T17:27:12.470Z,12.16
2019-03-02T17:29:23.567Z,12.37
2019-03-02T17:31:29.918Z,12.46
2019-03-02T17:44:48.687Z,12.79
2019-03-02T17:50:34.791Z,12.92
2019-03-02T17:51:36.005Z,12.99
2019-03-02T17:55:24.879Z,12.94
2019-03-02T17:56:04.694Z,13.03
2019-03-02T17:57:56.494Z,13.06
2019-03-02T18:00:41.876Z,12.85
2019-03-02T18:03:24.094Z,12.94
2019-03-02T18:14:32.148Z,13.14
2019-03-02T18:17:47.202Z,13.16
2019-03-02T18:18:31.798Z,13.17
2019-03-02T18:19:10.196Z,13.19
2019-03-02T18:19:50.792Z,13.07
2019-03-02T18:20:31.039Z,13.12
2019-03-02T18:21:11.934Z,13.21
2019-03-02T18:21:55.678Z,13.22
2019-03-02T18:22:36.292Z,13.25
2019-03-02T18:28:15.540Z,13.31
2019-03-02T18:31:07.687Z,13.29
2019-03-02T18:31:47.985Z,13.38
2019-03-02T18:32:34.078Z,13.35
2019-03-02T18:33:26.285Z,13.36
2019-03-02T18:34:09.997Z,13.31
2019-03-02T18:34:50.918Z,13.38
2019-03-02T18:35:37.965Z,13.35
2019-03-02T18:37:42.785Z,13.38
2019-03-02T18:38:24.025Z,13.38
2019-03-02T18:47:17.230Z,13.48
2019-03-02T18:48:00.230Z,13.5
2019-03-02T18:48:39.829Z,13.48
2019-03-02T18:49:25.382Z,13.57
2019-03-02T18:50:10.236Z,13.5
2019-03-02T18:50:50.543Z,13.61
2019-03-02T18:51:31.473Z,13.51
2019-03-02T18:52:11.805Z,13.54
2019-03-02T18:52:53.671Z,13.65
2019-03-02T18:53:35.897Z,13.63
2019-03-02T18:54:16.422Z,13.66
2019-03-02T18:54:57.063Z,13.63
2019-03-02T18:55:37.762Z,13.62
2019-03-02T18:56:18.150Z,13.65
2019-03-02T18:56:58.684Z,13.69
2019-03-02T18:57:46.432Z,13.71
2019-03-02T18:58:27.507Z,13.55
2019-03-02T18:59:07.657Z,13.46
2019-03-02T18:59:48.686Z,13.48
2019-03-02T19:00:30.612Z,13.47
2019-03-02T19:01:11.098Z,13.54
2019-03-02T19:01:51.562Z,13.62
2019-03-02T19:02:32.099Z,13.66
2019-03-02T19:03:13.970Z,13.63
2019-03-02T19:03:56.700Z,13.63
2019-03-02T19:04:37.404Z,13.62
2019-03-02T19:05:17.658Z,13.61
2019-03-02T19:05:59.589Z,13.66
2019-03-02T19:06:40.683Z,13.69
2019-03-02T19:07:21.144Z,13.55
2019-03-02T19:08:01.733Z,13.55
2019-03-02T19:08:42.785Z,13.53
2019-03-02T19:09:25.844Z,13.54
2019-03-02T19:10:04.039Z,13.55
2019-03-02T19:10:44.166Z,13.46
2019-03-02T19:11:24.270Z,13.46
2019-03-02T19:12:06.119Z,13.48
2019-03-02T19:12:47.011Z,13.32
2019-03-02T19:13:29.593Z,13.47
2019-03-02T19:14:11.520Z,13.48
2019-03-02T19:14:57.421Z,13.32
2019-03-02T19:15:35.232Z,13.44
2019-03-02T19:16:16.509Z,13.41
2019-03-02T19:16:58.842Z,13.47
2019-03-02T19:17:40.181Z,13.31
2019-03-02T19:18:24.105Z,13.35
2019-03-02T19:19:07.232Z,13.44
2019-03-02T19:19:47.719Z,13.36
2019-03-02T19:20:28.390Z,13.32
2019-03-02T19:21:10.804Z,13.36
2019-03-02T19:21:50.967Z,13.44
2019-03-02T19:22:31.913Z,13.48
2019-03-02T19:23:12.269Z,13.59
2019-03-02T19:23:52.665Z,13.53
2019-03-02T19:26:09.631Z,13.57
2019-03-02T19:26:49.504Z,13.59
2019-03-02T19:27:31.102Z,13.55
2019-03-02T19:28:11.509Z,13.51
2019-03-02T19:28:51.911Z,13.48
2019-03-02T19:29:32.359Z,13.46
2019-03-02T19:30:15.273Z,13.41
2019-03-02T19:30:55.678Z,13.35
2019-03-02T19:31:38.839Z,13.39
2019-03-02T19:32:19.130Z,13.24
2019-03-02T19:33:04.317Z,13.38
2019-03-02T19:33:44.789Z,13.25
2019-03-02T19:34:26.963Z,13.38
2019-03-02T19:35:11.230Z,13.31
2019-03-02T19:35:51.006Z,13.43
2019-03-02T19:36:31.594Z,13.48
2019-03-02T19:37:12.900Z,13.5
2019-03-02T19:37:55.452Z,13.48
2019-03-02T19:38:36.501Z,13.41
2019-03-02T19:39:17.412Z,13.44
2019-03-02T19:39:57.823Z,13.51
2019-03-02T19:40:38.267Z,13.53
2019-03-02T19:41:21.583Z,13.48
2019-03-02T19:42:01.957Z,13.5
2019-03-02T19:42:42.374Z,13.53
2019-03-02T19:43:23.862Z,13.48
2019-03-02T19:44:04.280Z,13.32
2019-03-02T19:44:47.851Z,13.32
2019-03-02T19:45:28.681Z,13.29
2019-03-02T19:46:10.930Z,13.32
2019-03-02T19:46:52.990Z,13.39
2019-03-02T19:47:34.016Z,13.24
2019-03-02T19:48:14.961Z,13.35
2019-03-02T19:48:55.201Z,13.35
2019-03-02T19:49:39.642Z,13.35
2019-03-02T19:50:20.200Z,13.41
2019-03-02T19:51:00.442Z,13.44
2019-03-02T19:53:04.975Z,13.61
2019-03-02T19:53:59.752Z,13.59
2019-03-02T19:54:42.391Z,13.66
2019-03-02T19:55:23.115Z,13.76